Latest Weather Observations for Richmond

IDN60901

Issued at 5:21 am EDT Friday 24 March 2017 (issued every 10 minutes, with the page automatically refreshed every 10 minutes)

About weather observations | Map of Sydney area stations | Latest observations for Sydney area | Other Formats
Station Details ID: 067105 Name: RICHMOND RAAF Lat: -33.60 Lon: 150.78 Height: 19.0 m
Data from the previous 72 hours. | See also: Recent months at Richmond
Date/Time
EDT
Temp
°C
App
Temp
°C
Dew
Point
°C
Rel
Hum
%
Delta-T
°C
Wind Press
QNH
hPa
Press
MSL
hPa
Rain since
9am
mm
Dir  Spd
km/h
Gust
km/h
Spd
kts
Gust
kts
24/05:18am 18.2 19.7 18.0 99 0.1 SW 7 9 4 5 1019.0 1018.9 2.8
24/05:09am 18.2 19.7 18.0 99 0.1 SSW 7 9 4 5 1018.9 1018.8 2.8
24/05:06am 18.1 19.5 17.9 99 0.1 SSW 7 13 4 7 1018.9 1018.8 2.8
24/05:01am 18.2 19.3 18.0 99 0.1 SSW 9 17 5 9 1018.9 1018.8 2.8
24/05:00am 18.2 18.9 18.0 99 0.1 SSW 11 17 6 9 1018.9 1018.8 2.8
24/04:51am 18.2 19.3 18.0 99 0.1 SSW 9 13 5 7 1019.0 1018.9 2.6
24/04:43am 18.2 19.3 17.9 98 0.2 SSW 9 13 5 7 1019.0 1018.9 2.6
24/04:30am 18.3 19.0 18.0 98 0.2 SW 11 15 6 8 1018.8 1018.7 2.6
24/04:00am 18.2 18.0 17.7 97 0.3 SW 15 19 8 10 1018.4 1018.3 2.6
24/03:30am 18.3 19.7 17.8 97 0.3 SW 7 11 4 6 1018.4 1018.3 2.6
24/03:00am 18.4 20.1 18.1 98 0.2 W 6 7 3 4 1018.7 1018.6 2.6
24/02:30am 18.4 19.5 17.9 97 0.3 WSW 9 11 5 6 1019.1 1019.0 2.6
24/02:26am 18.4 19.5 17.9 97 0.3 SW 9 11 5 6 1019.1 1019.0 2.2
24/02:07am 18.6 19.7 17.9 96 0.4 WSW 9 13 5 7 1019.2 1019.1 2.0
24/02:00am 18.6 19.7 18.1 97 0.3 SW 9 13 5 7 1019.0 1018.9 2.0
24/01:50am 18.6 19.3 17.9 96 0.4 SW 11 13 6 7 1019.0 1018.9 2.0
24/01:34am 18.7 19.8 18.0 96 0.4 SSW 9 13 5 7 1019.1 1019.0 2.0
24/01:30am 18.7 19.8 18.0 96 0.4 S 9 13 5 7 1019.1 1019.0 1.6
24/01:00am 18.7 18.3 18.0 96 0.4 SW 17 20 9 11 1019.2 1019.1 1.6
24/12:30am 19.3 20.7 18.6 96 0.4 W 9 17 5 9 1019.3 1019.2 1.6
24/12:00am 19.4 20.9 18.9 97 0.3 SSW 9 13 5 7 1019.1 1019.0 1.6
 
Date/Time
EDT
Temp
°C
App
Temp
°C
Dew
Point
°C
Rel
Hum
%
Delta-T
°C
Wind Press
QNH
hPa
Press
MSL
hPa
Rain since
9am
mm
Dir  Spd
km/h
Gust
km/h
Spd
kts
Gust
kts
23/11:30pm 19.5 21.5 18.7 95 0.5 S 6 7 3 4 1019.0 1018.9 1.6
23/11:00pm 19.6 21.1 18.8 95 0.5 SSW 9 15 5 8 1019.1 1019.0 1.6
23/10:30pm 19.5 21.0 19.0 97 0.3 SSW 9 13 5 7 1019.0 1018.9 1.6
23/10:00pm 19.5 20.1 18.7 95 0.5 SSW 13 19 7 10 1019.1 1019.0 1.6
23/09:30pm 19.6 21.1 18.9 96 0.4 SSW 9 17 5 9 1019.0 1018.9 1.6
23/09:00pm 19.7 21.6 19.0 96 0.4 SSW 7 11 4 6 1018.8 1018.7 1.6
23/08:30pm 19.8 21.9 19.3 97 0.3 SW 7 11 4 6 1018.6 1018.5 1.6
23/08:00pm 19.8 21.9 19.3 97 0.3 SSW 7 9 4 5 1017.9 1017.8 1.6
23/07:30pm 19.8 22.0 19.3 97 0.3 SSW 6 9 3 5 1017.6 1017.5 1.6
23/07:00pm 19.8 21.8 19.1 96 0.4 S 7 9 4 5 1017.6 1017.5 1.6
23/06:30pm 19.9 22.1 19.6 98 0.2 S 7 11 4 6 1017.5 1017.4 1.6
23/06:00pm 19.9 21.1 19.1 95 0.5 SSW 11 17 6 9 1017.6 1017.5 1.6
23/05:30pm 19.8 21.3 19.0 95 0.5 SSW 9 13 5 7 1017.5 1017.4 1.4
23/05:00pm 20.4 22.0 19.1 92 0.8 S 9 11 5 6 1017.5 1017.4 0.8
23/04:30pm 20.7 22.6 19.0 90 1.1 S 7 11 4 6 1017.3 1017.2 0.8
23/04:00pm 21.8 24.7 18.2 80 2.2 CALM 0 6 0 3 1017.3 1017.2 0.4
23/03:30pm 22.4 23.7 17.5 74 3.0 S 7 9 4 5 1017.4 1017.3 0.0
23/03:00pm 22.7 24.1 17.8 74 3.0 S 7 11 4 6 1017.3 1017.2 0.0
23/02:30pm 22.7 23.9 17.4 72 3.3 SSW 7 11 4 6 1017.7 1017.6 0.0
23/02:00pm 22.8 23.6 17.3 71 3.4 S 9 13 5 7 1017.9 1017.8 0.0
23/01:30pm 22.8 23.1 17.0 70 3.6 S 11 15 6 8 1018.4 1018.3 0.0
23/01:00pm 22.9 23.2 16.9 69 3.7 S 11 15 6 8 1018.7 1018.6 0.0
23/12:30pm 23.2 24.0 17.2 69 3.7 SSE 9 11 5 6 1018.9 1018.8 0.0
23/12:00pm 23.0 23.8 17.2 70 3.6 S 9 13 5 7 1019.3 1019.2 0.0
23/11:30am 22.9 22.9 17.1 70 3.6 S 13 17 7 9 1019.6 1019.5 0.0
23/11:00am 22.7 22.7 17.2 71 3.4 SSE 13 19 7 10 1019.4 1019.3 0.0
23/10:30am 22.4 21.7 17.3 73 3.1 SSW 17 26 9 14 1019.3 1019.2 0.0
23/10:00am 22.3 22.9 17.7 75 2.8 S 11 15 6 8 1018.9 1018.8 0.0
23/09:30am 21.8 23.3 18.0 79 2.4 SSW 7 11 4 6 1019.1 1019.0 0.0
23/09:00am 21.5 22.7 18.3 82 2.0 S 9 11 5 6 1018.7 1018.6 12.0
23/08:30am 21.2 23.1 18.6 85 1.6 SSW 6 11 3 6 1018.5 1018.4 12.0
23/08:00am 21.0 23.0 18.8 87 1.4 S 6 9 3 5 1018.1 1018.0 12.0
23/07:30am 20.8 24.4 19.8 94 0.6 CALM 0 0 0 0 1017.9 1017.8 12.0
23/07:00am 20.7 23.1 19.7 94 0.6 SW 6 7 3 4 1017.7 1017.6 12.0
23/06:30am 20.7 23.4 19.5 93 0.8 SW 4 7 2 4 1017.3 1017.2 12.0
23/06:00am 20.9 24.6 19.9 94 0.6 CALM 0 0 0 0 1017.1 1017.0 12.0
23/05:30am 20.7 23.8 19.4 92 0.8 WSW 2 6 1 3 1016.6 1016.5 12.0
23/05:00am 20.7 23.5 19.7 94 0.6 W 4 7 2 4 1016.5 1016.4 12.0
23/04:30am 20.7 22.9 19.5 93 0.8 WSW 7 9 4 5 1016.5 1016.4 12.0
23/04:00am 20.9 22.8 19.0 89 1.2 S 7 9 4 5 1016.6 1016.5 12.0
23/03:30am 20.9 24.2 19.0 89 1.2 CALM 0 4 0 2 1016.6 1016.5 12.0
23/03:00am 21.0 23.0 19.1 89 1.2 S 7 13 4 7 1016.5 1016.4 12.0
23/02:30am 21.0 24.6 19.7 92 0.8 CALM 0 0 0 0 1016.9 1016.8 12.0
23/02:00am 21.1 22.9 19.6 91 1.0 S 9 13 5 7 1016.9 1016.8 12.0
23/01:30am 21.2 22.8 20.0 93 0.8 S 11 15 6 8 1016.9 1016.8 12.0
23/01:00am 21.3 23.7 20.8 97 0.3 SSW 9 11 5 6 1016.9 1016.8 12.0
23/12:59am 21.3 23.7 20.8 97 0.3 SSW 9 11 5 6 1016.9 1016.8 12.0
23/12:43am 21.3 23.8 21.0 98 0.2 SW 9 13 5 7 1016.8 1016.7 12.0
23/12:30am 21.3 24.2 21.0 98 0.2 WSW 7 11 4 6 1016.9 1016.8 12.0
23/12:28am 21.3 24.2 21.0 98 0.2 WSW 7 13 4 7 1016.8 1016.7 12.0
23/12:00am 21.3 24.0 20.6 96 0.5 W 7 9 4 5 1016.7 1016.6 11.6
 
Date/Time
EDT
Temp
°C
App
Temp
°C
Dew
Point
°C
Rel
Hum
%
Delta-T
°C
Wind Press
QNH
hPa
Press
MSL
hPa
Rain since
9am
mm
Dir  Spd
km/h
Gust
km/h
Spd
kts
Gust
kts
22/11:43pm 21.3 24.0 20.6 96 0.5 WSW 7 11 4 6 1016.6 1016.5 11.6
22/11:30pm 21.3 24.5 20.6 96 0.5 W 4 11 2 6 1016.6 1016.5 11.6
22/11:00pm 21.2 24.1 20.7 97 0.3 SW 6 9 3 5 1016.7 1016.6 11.6
22/10:30pm 21.2 23.8 20.5 96 0.5 S 7 9 4 5 1016.6 1016.5 11.6
22/10:00pm 21.2 23.7 21.0 99 0.1 SSE 9 13 5 7 1016.3 1016.2 11.6
22/09:30pm 21.2 24.3 21.0 99 0.1 S 6 9 3 5 1015.5 1015.4 11.6
22/09:00pm 21.3 25.5 21.0 98 0.2 CALM 0 0 0 0 1014.7 1014.6 11.6
22/08:30pm 21.5 24.4 21.0 97 0.3 WSW 7 7 4 4 1014.2 1014.1 11.6
22/08:00pm 21.7 24.9 21.2 97 0.3 NW 6 9 3 5 1013.5 1013.4 11.6
22/07:30pm 21.9 24.6 21.4 97 0.3 NW 9 11 5 6 1013.6 1013.5 11.6
22/07:00pm 22.3 25.5 21.3 94 0.7 N 6 9 3 5 1013.5 1013.4 11.6
22/06:30pm 22.5 25.2 21.3 93 0.8 NW 9 13 5 7 1013.4 1013.3 11.6
22/06:00pm 22.4 25.6 21.7 96 0.5 SW 7 11 4 6 1012.8 1012.7 11.6
22/05:55pm 22.1 25.5 21.6 97 0.3 S 6 13 3 7 1012.6 1012.5 11.6
22/05:30pm 21.9 23.6 21.6 98 0.2 SE 15 19 8 10 1012.8 1012.7 6.8
22/05:29pm 21.9 23.8 21.4 97 0.3 SE 13 19 7 10 1012.8 1012.7 6.2
22/05:00pm 22.0 22.3 20.8 93 0.8 S 20 28 11 15 1012.1 1012.0 2.8
22/04:44pm 22.1 23.4 20.9 93 0.8 E 15 33 8 18 1011.6 1011.5 2.6
22/04:30pm 21.9 22.2 20.4 91 1.0 W 19 43 10 23 1010.4 1010.3 2.6
22/04:25pm 21.7 19.2 19.8 89 1.2 W 32 54 17 29 1010.8 1010.7 1.6
22/04:18pm 22.4 20.2 19.6 84 1.8 WSW 30 52 16 28 1011.1 1011.0 0.2
22/04:00pm 24.3 22.9 18.7 71 3.6 S 24 37 13 20 1011.0 1010.9 0.2
22/03:46pm 25.3 23.4 18.5 66 4.3 S 26 54 14 29 1010.5 1010.4 0.2
22/03:41pm 26.2 25.3 18.1 61 5.1 SE 20 35 11 19 1010.6 1010.5 0.2
22/03:30pm 31.2 35.0 24.1 66 4.9 ENE 11 19 6 10 1010.2 1010.1 0.2
22/03:00pm 30.6 33.7 23.5 66 4.9 E 13 17 7 9 1010.3 1010.2 0.2
22/02:30pm 30.6 33.2 22.7 62 5.4 E 13 19 7 10 1010.4 1010.3 0.2
22/02:00pm 29.4 33.2 23.4 70 4.1 ENE 9 13 5 7 1010.8 1010.7 0.2
22/01:30pm 29.2 33.4 22.4 66 4.6 NE 4 7 2 4 1011.2 1011.1 0.2
22/01:00pm 28.9 31.9 21.9 66 4.7 N 9 11 5 6 1011.3 1011.2 0.2
22/12:30pm 29.3 32.0 22.8 68 4.4 NNE 13 17 7 9 1011.3 1011.2 0.2
22/12:00pm 29.0 31.2 23.2 71 4.0 NE 17 20 9 11 1011.6 1011.5 0.2
22/11:30am 28.1 32.1 23.7 77 3.0 NE 9 15 5 8 1012.0 1011.9 0.0
22/11:00am 26.7 30.2 22.1 76 3.1 NE 7 11 4 6 1012.4 1012.3 0.0
22/10:30am 25.2 29.2 22.1 83 2.1 N 4 9 2 5 1012.8 1012.7 0.0
22/10:00am 25.0 27.8 22.3 85 1.8 N 11 15 6 8 1012.8 1012.7 0.0
22/09:30am 24.0 27.6 22.4 91 1.1 N 7 9 4 5 1012.8 1012.7 0.0
22/09:00am 23.4 27.1 22.2 93 0.8 NNW 6 9 3 5 1012.8 1012.7 43.2
22/08:30am 22.7 27.7 22.5 99 0.1 CALM 0 0 0 0 1012.5 1012.4 43.2
22/08:00am 22.2 26.9 22.0 99 0.1 CALM 0 6 0 3 1012.3 1012.2 43.2
22/07:30am 21.8 26.3 21.6 99 0.1 CALM 0 0 0 0 1011.9 1011.8 43.2
22/07:00am 21.8 26.3 21.6 99 0.1 CALM 0 0 0 0 1011.3 1011.2 43.2
22/06:30am 22.0 26.6 21.7 98 0.2 CALM 0 0 0 0 1011.1 1011.0 43.2
22/06:00am 22.2 25.6 21.7 97 0.3 NNE 6 7 3 4 1010.8 1010.7 43.2
22/05:30am 22.5 24.9 22.2 98 0.2 NE 13 17 7 9 1010.6 1010.5 43.2
22/05:00am 22.2 25.6 22.0 99 0.1 ENE 7 9 4 5 1010.3 1010.2 43.2
22/04:30am 22.5 25.7 22.3 99 0.1 ESE 9 15 5 8 1010.3 1010.2 43.2
22/04:00am 22.5 26.0 22.2 98 0.2 NNE 7 11 4 6 1010.3 1010.2 43.2
22/03:30am 22.5 26.0 22.2 98 0.2 ENE 7 13 4 7 1010.4 1010.3 43.2
22/03:00am 22.5 25.2 22.2 98 0.2 N 11 15 6 8 1011.1 1011.0 43.2
22/02:30am 22.4 25.5 22.1 98 0.2 N 9 13 5 7 1011.2 1011.1 43.2
22/02:00am 22.5 24.5 22.3 99 0.1 N 15 19 8 10 1011.6 1011.5 43.2
22/01:57am 22.5 24.5 22.3 99 0.1 NNE 15 19 8 10 1011.6 1011.5 43.2
22/01:38am 22.5 23.7 22.2 98 0.2 N 19 24 10 13 1012.4 1012.3 42.4
22/01:30am 22.7 24.6 22.0 96 0.5 N 15 20 8 11 1012.5 1012.4 40.6
22/01:00am 22.6 25.7 22.1 97 0.3 N 9 15 5 8 1012.6 1012.5 40.0
22/12:30am 22.4 25.2 21.6 95 0.5 NNW 9 13 5 7 1012.7 1012.6 39.2
22/12:00am 22.8 23.9 21.3 91 1.0 N 17 24 9 13 1012.6 1012.5 39.0
 
Date/Time
EDT
Temp
°C
App
Temp
°C
Dew
Point
°C
Rel
Hum
%
Delta-T
°C
Wind Press
QNH
hPa
Press
MSL
hPa
Rain since
9am
mm
Dir  Spd
km/h
Gust
km/h
Spd
kts
Gust
kts
21/11:30pm 22.6 24.3 22.4 99 0.1 NE 17 22 9 12 1013.1 1013.0 39.0
21/11:00pm 22.6 26.4 22.4 99 0.1 N 6 11 3 6 1013.5 1013.4 38.2
21/10:30pm 22.5 26.1 22.3 99 0.1 W 7 11 4 6 1013.8 1013.7 37.6
21/10:00pm 22.5 26.1 22.3 99 0.1 NNW 7 11 4 6 1013.5 1013.4 36.8
21/09:30pm 22.4 25.9 22.2 99 0.1 WNW 7 11 4 6 1013.6 1013.5 36.8
21/09:00pm 22.5 25.7 22.3 99 0.1 NNW 9 13 5 7 1013.7 1013.6 36.8
21/08:59pm 22.5 25.7 22.3 99 0.1 NNW 9 13 5 7 1013.7 1013.6 36.8
21/08:37pm 22.5 25.3 22.3 99 0.1 N 11 15 6 8 1013.4 1013.3 36.8
21/08:30pm 22.5 25.3 22.3 99 0.1 NNE 11 15 6 8 1013.2 1013.1 36.8
21/08:00pm 22.6 25.5 22.4 99 0.1 SW 11 13 6 7 1013.1 1013.0 36.2
21/07:30pm 22.6 26.2 22.4 99 0.1 S 7 9 4 5 1012.8 1012.7 36.0
21/07:00pm 22.3 23.3 22.1 99 0.1 SSW 20 28 11 15 1012.8 1012.7 35.8
21/06:30pm 21.9 26.1 20.9 94 0.7 CALM 0 6 0 3 1013.2 1013.1 33.0
21/06:05pm 22.7 25.2 21.7 94 0.7 SW 11 20 6 11 1012.6 1012.5 31.4
21/06:03pm 22.9 25.6 22.2 96 0.5 SSW 11 24 6 13 1012.6 1012.5 31.4
21/06:00pm 23.1 24.9 22.6 97 0.3 S 17 30 9 16 1012.6 1012.5 31.0
21/05:45pm 23.2 25.2 22.9 98 0.2 SSE 17 26 9 14 1012.2 1012.1 30.2
21/05:30pm 23.8 26.2 23.0 95 0.5 SW 15 19 8 10 1012.4 1012.3 11.2
21/05:23pm 24.4 27.2 23.0 92 0.9 SSW 13 17 7 9 1012.2 1012.1 5.8
21/05:00pm 25.5 28.2 23.4 88 1.4 S 15 20 8 11 1012.1 1012.0 3.2
21/04:30pm 26.1 29.5 24.0 88 1.4 SW 13 20 7 11 1012.0 1011.9 3.2
21/04:10pm 26.4 30.7 24.2 88 1.5 W 9 15 5 8 1012.0 1011.9 3.2
21/04:00pm 26.2 30.3 24.6 91 1.1 SW 11 15 6 8 1011.8 1011.7 3.2
21/03:52pm 26.3 31.0 24.9 92 1.0 WSW 9 13 5 7 1011.8 1011.7 2.4
21/03:30pm 27.3 30.8 23.5 80 2.6 SSW 11 17 6 9 1011.7 1011.6 0.8
21/03:00pm 28.1 33.4 23.0 74 3.5 CALM 0 7 0 4 1011.9 1011.8 0.8
21/02:30pm 29.0 33.3 22.7 69 4.3 NE 4 9 2 5 1012.2 1012.1 0.0
21/02:00pm 28.4 31.6 22.4 70 4.1 E 9 13 5 7 1012.7 1012.6 0.0
21/01:30pm 28.3 31.8 22.8 72 3.7 ENE 9 15 5 8 1013.2 1013.1 0.0
21/01:00pm 27.7 30.6 21.7 70 4.0 ENE 9 13 5 7 1013.7 1013.6 0.0
21/12:30pm 27.0 30.1 21.5 72 3.7 ENE 7 15 4 8 1014.1 1014.0 0.0
21/12:00pm 27.1 31.7 23.1 79 2.7 ENE 4 9 2 5 1014.7 1014.6 0.0
21/11:30am 25.9 30.2 22.6 82 2.2 NE 4 9 2 5 1015.1 1015.0 0.0
21/11:28am 25.8 29.7 22.5 82 2.2 NE 6 9 3 5 1015.2 1015.1 0.0
21/11:00am 25.2 30.0 22.1 83 2.1 CALM 0 0 0 0 1015.3 1015.2 0.0
21/10:30am 24.9 28.9 22.0 84 1.9 S 4 7 2 4 1015.5 1015.4 0.0
21/10:00am 24.0 29.1 22.6 92 0.9 CALM 0 0 0 0 1015.6 1015.5 0.0
21/09:59am 23.9 28.9 22.5 92 0.9 CALM 0 0 0 0 1015.6 1015.5 0.0
21/09:30am 23.7 28.9 22.9 95 0.5 CALM 0 0 0 0 1015.5 1015.4 0.0
21/09:29am 23.7 28.8 22.7 94 0.7 CALM 0 0 0 0 1015.5 1015.4 0.0
21/09:26am 23.7 28.9 22.9 95 0.5 CALM 0 0 0 0 1015.5 1015.4 0.0
21/09:16am 23.4 28.5 22.6 95 0.5 CALM 0 0 0 0 1015.5 1015.4 0.0
21/09:04am 23.2 28.1 22.4 95 0.5 CALM 0 0 0 0 1015.6 1015.5 0.0
21/09:00am 23.2 28.1 22.4 95 0.5 CALM 0 0 0 0 1015.6 1015.5 0.0
21/08:30am 22.8 27.7 22.3 97 0.3 CALM 0 0 0 0 1015.6 1015.5 0.0
21/08:05am 22.5 27.3 22.2 98 0.2 CALM 0 0 0 0 1015.5 1015.4 0.0
21/08:00am 22.5 27.0 22.2 98 0.2 NW 2 6 1 3 1015.5 1015.4 0.0
21/07:30am 22.5 26.2 22.2 98 0.2 NW 6 9 3 5 1015.4 1015.3 0.0
21/07:09am 22.6 27.3 21.9 96 0.5 CALM 0 0 0 0 1015.2 1015.1 0.0
21/07:00am 22.6 27.3 21.9 96 0.5 CALM 0 0 0 0 1015.2 1015.1 0.0
21/06:43am 22.7 27.4 21.9 95 0.5 CALM 0 0 0 0 1015.0 1014.9 0.0
21/06:30am 22.7 27.2 21.5 93 0.8 CALM 0 0 0 0 1014.8 1014.7 0.0
21/06:28am 22.7 27.2 21.5 93 0.8 CALM 0 0 0 0 1014.8 1014.7 0.0
21/06:00am 23.0 27.6 21.8 93 0.8 CALM 0 0 0 0 1014.6 1014.5 0.0
21/05:30am 23.0 27.5 21.5 91 1.0 CALM 0 0 0 0 1014.3 1014.2 0.0

Latest Capital City Observations: Canberra | Sydney | Melbourne | Brisbane | Adelaide | Perth | Hobart | Darwin

Other Formats:

Comma delimited format used in spreadsheet applications
http://www.bom.gov.au/fwo/IDN60901/IDN60901.95753.axf

JavaScript Object Notation format (JSON) in row-major order
http://www.bom.gov.au/fwo/IDN60901/IDN60901.95753.json